KVYS/VYS METAR and TAF weather

Enter ICAO airport designator
Station Type Date Time Source
KVYS METAR 2020/03/28 08:55 UTC NOAA

KVYS 280855Z AUTO 09011KT 7SM OVC006 10/09 A2960 RMK AO2 LTG DSNT S T01020093


Station Type Date Time Source
KVYS Decoded METAR 2020/03/28 08:55 UTC NOAA

Peru, Illinois Valley Regional-Walter A Duncan Field Airport, IL, United States (KVYS) 41-21-07N 089-09-11W
Mar 28, 2020 - 04:55 AM EDT / 2020.03.28 0855 UTC
Wind: from the E (090 degrees) at 13 MPH (11 KT):0
Visibility: 7 mile(s):0
Sky conditions: overcast
Weather: Lightning observed
Temperature: 50.4 F (10.2 C)
Dew Point: 48.7 F (9.3 C)
Relative Humidity: 94%
Pressure (altimeter): 29.6 in. Hg (1002 hPa)
ob: KVYS 280855Z AUTO 09011KT 7SM OVC006 10/09 A2960 RMK AO2 LTG DSNT S T01020093
cycle: 9

Station Type Date Time Source
KVYS TAF UTC NOAA

Error!

Example: see airport list